Time;durP1;ratioP1;P1;durP2;ratioP2;P2;SDS_P1;SDS_P2;PMS_P1;PMS_P2;Temp;Humidity;BMP_temperature;BMP_pressure;BME280_temperature;BME280_humidity;BME280_pressure;Samples;Min_cycle;Max_cycle;Signal;HPM_P1;HPM_P2
2021/07/23 00:02:04;;;;;;;;;8.00;5.20;;;;;22.26;51.43;100668.88;5102773;28;8822;-78
2021/07/23 00:04:59;;;;;;;;;4.75;4.75;;;;;22.30;52.40;100663.22;5100657;28;8825;-77
2021/07/23 00:07:55;;;;;;;;;5.00;5.00;;;;;22.03;51.89;100666.56;5116606;28;8890;-78
2021/07/23 00:10:50;;;;;;;;;4.25;4.25;;;;;22.23;51.85;100666.88;5116174;28;8808;-79
2021/07/23 00:13:47;;;;;;;;;6.00;6.00;;;;;22.25;52.14;100672.91;5116127;28;8838;-78
2021/07/23 00:16:43;;;;;;;;;4.00;4.00;;;;;22.22;51.31;100670.09;5116646;28;8803;-78
2021/07/23 00:19:11;;;;;;;;;3.75;3.75;;;;;22.19;51.18;100666.09;5100447;28;8895;-78
2021/07/23 00:22:07;;;;;;;;;5.00;5.00;;;;;22.36;52.64;100679.28;5102287;28;8946;-79
2021/07/23 00:25:03;;;;;;;;;4.80;4.80;;;;;22.05;51.98;100672.56;5115119;28;8823;-78
2021/07/23 00:27:58;;;;;;;;;3.00;3.00;;;;;22.14;51.79;100675.78;5116727;28;8834;-78
2021/07/23 00:30:54;;;;;;;;;3.50;3.50;;;;;22.16;52.91;100684.63;5111163;28;8823;-77
2021/07/23 00:33:35;;;;;;;;;3.75;3.75;;;;;22.10;53.90;100674.19;5116133;28;8854;-78
2021/07/23 00:36:31;;;;;;;;;5.75;5.75;;;;;22.39;52.86;100689.75;5102170;28;9618;-78
2021/07/23 00:39:27;;;;;;;;;4.00;4.00;;;;;22.12;52.77;100686.66;5101966;28;8815;-79
2021/07/23 00:42:41;;;;;;;;;4.75;4.75;;;;;21.67;51.76;100685.59;5115662;28;8867;-78
2021/07/23 00:45:36;;;;;;;;;3.50;3.50;;;;;22.09;53.82;100689.50;5115961;28;8899;-78
2021/07/23 00:48:33;;;;;;;;;5.25;3.75;;;;;22.11;54.59;100687.06;5116650;28;8850;-79
2021/07/23 00:51:29;;;;;;;;;3.25;3.25;;;;;22.15;52.38;100683.00;5095738;28;8841;-78
2021/07/23 00:54:25;;;;;;;;;3.25;3.25;;;;;21.91;53.60;100681.88;5095137;28;8823;-77
2021/07/23 00:57:22;;;;;;;;;2.75;2.75;;;;;21.79;52.12;100690.78;5095424;28;8826;-78
2021/07/23 01:00:18;;;;;;;;;3.50;3.50;;;;;21.46;52.57;100694.88;5095982;28;8833;-77
2021/07/23 01:03:14;;;;;;;;;2.50;2.50;;;;;21.33;52.45;100699.34;5095023;28;8847;-77
2021/07/23 01:05:42;;;;;;;;;3.75;3.75;;;;;21.71;54.10;100696.84;5096293;28;8817;-77
2021/07/23 01:08:09;;;;;;;;;2.75;2.75;;;;;21.34;55.41;100696.13;5096034;28;8858;-77
2021/07/23 01:10:55;;;;;;;;;3.25;3.25;;;;;21.45;55.21;100700.94;5109791;28;8857;-76
2021/07/23 01:13:52;;;;;;;;;4.00;3.50;;;;;21.39;53.57;100700.53;5102138;28;8849;-77
2021/07/23 01:16:48;;;;;;;;;2.25;2.25;;;;;21.27;52.93;100707.38;5114940;28;8833;-77
2021/07/23 01:19:42;;;;;;;;;2.75;2.75;;;;;21.25;53.59;100697.72;5108071;28;8821;-78
2021/07/23 01:22:18;;;;;;;;;3.75;3.75;;;;;21.24;54.79;100698.91;5095615;28;8875;-77
2021/07/23 01:24:46;;;;;;;;;4.75;4.75;;;;;21.54;54.84;100713.34;5095715;28;8857;-78
2021/07/23 01:27:18;;;;;;;;;3.50;3.50;;;;;21.25;54.13;100712.59;5095503;28;8833;-76
2021/07/23 01:30:07;;;;;;;;;5.25;5.25;;;;;21.34;54.11;100707.38;5095668;28;8853;-78
2021/07/23 01:33:03;;;;;;;;;3.75;3.75;;;;;21.28;54.41;100706.19;5111015;28;8841;-77
2021/07/23 01:35:59;;;;;;;;;4.25;4.25;;;;;20.99;54.81;100704.56;5115203;28;8911;-78
2021/07/23 01:38:57;;;;;;;;;2.50;2.50;;;;;21.14;54.15;100703.34;5114365;28;8838;-77
2021/07/23 01:41:53;;;;;;;;;3.67;3.67;;;;;21.12;54.94;100710.59;5092475;28;8824;-78
2021/07/23 01:44:51;;;;;;;;;3.25;3.25;;;;;21.07;55.34;100704.16;5075235;28;8846;-79
2021/07/23 01:47:47;;;;;;;;;3.25;3.25;;;;;20.76;54.80;100708.56;5073622;28;8944;-80
2021/07/23 01:50:42;;;;;;;;;3.00;3.00;;;;;20.59;55.95;100717.75;5060231;28;8850;-81
2021/07/23 01:53:38;;;;;;;;;4.75;4.75;;;;;20.14;56.20;100708.78;5067587;28;8826;-80
2021/07/23 01:56:33;;;;;;;;;4.50;4.50;;;;;20.41;57.11;100712.09;5091598;28;8831;-81
2021/07/23 01:59:30;;;;;;;;;2.25;2.25;;;;;20.38;56.87;100704.44;5085066;28;8849;-79
2021/07/23 02:02:25;;;;;;;;;3.50;3.50;;;;;20.22;57.24;100712.41;5074196;28;8842;-80
2021/07/23 02:05:21;;;;;;;;;3.00;3.00;;;;;20.19;57.40;100710.41;5074039;28;9605;-82
2021/07/23 02:08:16;;;;;;;;;3.00;3.00;;;;;19.96;56.77;100719.94;5073832;28;8872;-80
2021/07/23 02:10:45;;;;;;;;;3.00;3.00;;;;;20.09;57.89;100719.59;5082051;28;8871;-82
2021/07/23 02:13:41;;;;;;;;;4.00;4.00;;;;;19.74;57.53;100717.44;5070664;28;8870;-78
2021/07/23 02:16:36;;;;;;;;;3.50;3.50;;;;;20.02;59.25;100719.59;5081017;28;8834;-78
2021/07/23 02:19:32;;;;;;;;;3.00;3.00;;;;;20.27;57.52;100721.28;5079433;28;9654;-78
2021/07/23 02:22:28;;;;;;;;;3.00;3.00;;;;;20.06;57.80;100729.59;5079605;28;8834;-82
2021/07/23 02:25:24;;;;;;;;;2.25;2.25;;;;;20.31;59.67;100728.88;5091903;28;8836;-79
2021/07/23 02:28:20;;;;;;;;;5.00;4.00;;;;;20.02;58.11;100722.38;5076949;28;8913;-79
2021/07/23 02:31:18;;;;;;;;;6.00;5.75;;;;;20.08;58.40;100726.41;5090704;28;8840;-82
2021/07/23 02:34:14;;;;;;;;;6.00;3.00;;;;;20.10;58.83;100724.81;5079413;28;8846;-80
2021/07/23 02:37:10;;;;;;;;;3.50;3.50;;;;;20.28;58.83;100724.88;5078317;28;8949;-79
2021/07/23 02:40:07;;;;;;;;;3.00;3.00;;;;;20.14;58.10;100736.06;5093984;28;8963;-78
2021/07/23 02:43:02;;;;;;;;;4.75;4.75;;;;;20.27;58.01;100735.31;5113053;28;8852;-80
2021/07/23 02:45:58;;;;;;;;;4.75;4.75;;;;;20.26;58.48;100741.34;5112983;28;9587;-79
2021/07/23 02:48:54;;;;;;;;;5.50;5.50;;;;;20.53;58.08;100744.63;5112307;28;8941;-80
2021/07/23 02:51:49;;;;;;;;;6.00;6.00;;;;;20.11;56.63;100743.28;5107886;28;8842;-77
2021/07/23 02:54:45;;;;;;;;;7.50;4.25;;;;;20.16;58.92;100737.25;5108505;28;8928;-80
2021/07/23 02:57:40;;;;;;;;;12.50;7.75;;;;;20.06;58.10;100746.44;5113301;28;8826;-78
2021/07/23 03:00:36;;;;;;;;;4.75;4.75;;;;;19.99;58.53;100757.66;5113327;28;8869;-78
2021/07/23 03:03:32;;;;;;;;;7.25;7.00;;;;;20.24;58.06;100752.97;5112696;28;8822;-78
2021/07/23 03:06:27;;;;;;;;;5.75;5.75;;;;;20.09;58.30;100754.09;5104020;28;8836;-77
2021/07/23 03:09:23;;;;;;;;;4.75;4.75;;;;;20.33;59.23;100754.59;5092260;28;8824;-78
2021/07/23 03:12:19;;;;;;;;;8.75;5.75;;;;;20.16;59.71;100754.09;5092660;28;8831;-78
2021/07/23 03:15:16;;;;;;;;;8.25;6.50;;;;;20.37;57.97;100759.00;5092758;28;8868;-79
2021/07/23 03:18:12;;;;;;;;;5.25;5.25;;;;;20.38;57.56;100763.41;5092267;28;9619;-79
2021/07/23 03:21:10;;;;;;;;;6.75;6.75;;;;;20.74;60.55;100763.56;5078995;28;8827;-78
2021/07/23 03:24:06;;;;;;;;;4.75;4.75;;;;;20.50;56.96;100759.50;5107175;28;8839;-78
2021/07/23 03:27:01;;;;;;;;;6.00;6.00;;;;;20.53;57.07;100769.91;5098849;28;9559;-79
2021/07/23 03:29:57;;;;;;;;;5.00;5.00;;;;;20.75;58.84;100773.59;5112196;28;8835;-79
2021/07/23 03:32:53;;;;;;;;;4.25;4.25;;;;;20.56;56.92;100768.34;5112922;28;8818;-77
2021/07/23 03:35:48;;;;;;;;;4.75;4.75;;;;;20.58;57.62;100777.97;5112080;28;8964;-78
2021/07/23 03:38:44;;;;;;;;;4.75;4.75;;;;;20.63;57.56;100771.19;5112216;28;8829;-77
2021/07/23 03:41:42;;;;;;;;;3.75;3.75;;;;;20.62;57.21;100780.78;5111996;28;8936;-78
2021/07/23 03:44:37;;;;;;;;;3.75;3.75;;;;;20.15;56.58;100766.53;5091045;28;8835;-77
2021/07/23 03:47:33;;;;;;;;;4.00;4.00;;;;;20.10;56.92;100786.59;5098900;28;8831;-80
2021/07/23 03:50:28;;;;;;;;;5.00;5.00;;;;;20.43;57.58;100777.09;5098957;28;8838;-77
2021/07/23 03:53:26;;;;;;;;;6.50;5.75;;;;;20.30;56.28;100777.84;5111748;28;8862;-78
2021/07/23 03:56:21;;;;;;;;;5.25;5.25;;;;;20.37;56.61;100778.66;5111767;28;8809;-78
2021/07/23 03:59:17;;;;;;;;;5.00;5.00;;;;;20.44;56.40;100784.34;5111566;28;8841;-77
2021/07/23 04:02:12;;;;;;;;;3.25;3.25;;;;;20.33;55.98;100782.69;5092309;28;8842;-77
2021/07/23 04:05:08;;;;;;;;;5.25;5.25;;;;;20.51;55.98;100783.56;5092325;28;8904;-77
2021/07/23 04:08:04;;;;;;;;;4.25;4.25;;;;;20.69;56.68;100783.63;5099905;28;8818;-78
2021/07/23 04:11:00;;;;;;;;;1.00;1.00;;;;;20.86;55.77;100782.06;5112544;28;8848;-77
2021/07/23 04:13:55;;;;;;;;;5.25;5.25;;;;;20.67;55.10;100786.81;5111697;28;9671;-78
2021/07/23 04:16:51;;;;;;;;;5.00;4.75;;;;;20.75;54.60;100782.03;5111909;28;8841;-78
2021/07/23 04:19:46;;;;;;;;;4.00;4.00;;;;;20.69;55.28;100789.22;5111915;28;8954;-76
2021/07/23 04:22:42;;;;;;;;;5.75;5.75;;;;;20.61;53.55;100779.97;5110520;27;8843;-77
2021/07/23 04:25:38;;;;;;;;;1.00;1.00;;;;;20.96;56.24;100782.06;5072500;28;8856;-78
2021/07/23 04:28:33;;;;;;;;;5.00;5.00;;;;;21.15;57.04;100785.69;5112789;28;8853;-78
2021/07/23 04:31:29;;;;;;;;;4.75;4.75;;;;;21.34;55.15;100786.13;5112041;28;8851;-77
2021/07/23 04:34:25;;;;;;;;;5.25;5.25;;;;;21.43;53.07;100793.38;5098704;28;9588;-78
2021/07/23 04:37:20;;;;;;;;;5.50;5.50;;;;;21.28;53.25;100789.75;5098731;28;8827;-78
2021/07/23 04:40:16;;;;;;;;;5.75;5.75;;;;;21.38;53.61;100791.75;5096046;28;8884;-77
2021/07/23 04:43:11;;;;;;;;;5.50;5.50;;;;;21.42;52.37;100792.56;5101442;28;9565;-77
2021/07/23 04:46:08;;;;;;;;;3.25;3.25;;;;;21.74;55.03;100792.53;5094156;28;8956;-77
2021/07/23 04:49:04;;;;;;;;;4.00;4.00;;;;;22.05;53.02;100790.03;5102072;28;8830;-76
2021/07/23 04:52:00;;;;;;;;;5.75;5.75;;;;;22.22;52.16;100800.47;5101681;28;8849;-78
2021/07/23 04:54:56;;;;;;;;;4.25;4.25;;;;;22.13;51.17;100802.91;5101636;28;8857;-78
2021/07/23 04:57:53;;;;;;;;;5.00;5.00;;;;;22.22;52.30;100802.50;5110272;28;8837;-78
2021/07/23 05:00:50;;;;;;;;;4.20;4.20;;;;;22.07;50.91;100796.88;5109882;28;9546;-78
2021/07/23 05:03:45;;;;;;;;;4.75;4.75;;;;;22.35;51.14;100803.66;5094579;28;8833;-79
2021/07/23 05:06:41;;;;;;;;;4.00;4.00;;;;;22.39;51.01;100807.25;5104732;28;8832;-80
2021/07/23 05:09:37;;;;;;;;;5.80;5.80;;;;;22.51;51.86;100806.81;5082298;28;8835;-81
2021/07/23 05:12:33;;;;;;;;;4.60;4.60;;;;;22.57;50.94;100810.00;5111649;28;8817;-80
2021/07/23 05:15:28;;;;;;;;;3.60;3.60;;;;;22.67;52.20;100809.94;5105911;28;8868;-79
2021/07/23 05:18:28;;;;;;;;;6.40;6.40;;;;;22.89;50.69;100807.03;5087585;28;8823;-79
2021/07/23 05:21:24;;;;;;;;;5.40;4.60;;;;;22.87;50.32;100812.28;5092255;28;8910;-79
2021/07/23 05:24:20;;;;;;;;;5.00;5.00;;;;;23.12;49.88;100812.91;5101244;28;8825;-78
2021/07/23 05:27:16;;;;;;;;;4.80;4.80;;;;;23.08;51.22;100811.31;5112989;28;8849;-78
2021/07/23 05:30:12;;;;;;;;;5.00;5.00;;;;;23.22;49.60;100812.03;5095426;28;8872;-79
2021/07/23 05:33:08;;;;;;;;;3.60;3.60;;;;;23.28;49.64;100815.22;5104637;28;8819;-77
2021/07/23 05:36:03;;;;;;;;;8.00;4.80;;;;;23.25;48.51;100816.06;5095083;28;8838;-80
2021/07/23 05:38:59;;;;;;;;;6.00;6.00;;;;;23.37;50.02;100811.91;5093949;28;8839;-78
2021/07/23 05:41:55;;;;;;;;;4.80;4.80;;;;;23.63;49.99;100822.63;5096109;28;8848;-78
2021/07/23 05:44:50;;;;;;;;;4.20;4.20;;;;;23.68;48.13;100821.34;5089886;28;8854;-79
2021/07/23 05:47:53;;;;;;;;;5.40;5.40;;;;;23.87;48.81;100829.25;5098628;28;8846;-80
2021/07/23 05:50:50;;;;;;;;;6.80;6.80;;;;;23.99;48.74;100820.22;5112020;28;8847;-82
2021/07/23 05:53:45;;;;;;;;;13.60;13.60;;;;;24.08;49.80;100819.75;5102598;28;8834;-79
2021/07/23 05:56:41;;;;;;;;;19.75;19.25;;;;;24.24;48.75;100833.31;5104848;28;8849;-78
2021/07/23 05:59:38;;;;;;;;;7.40;6.60;;;;;24.03;47.06;100823.81;5106614;28;8847;-77
2021/07/23 06:02:35;;;;;;;;;23.50;23.50;;;;;24.26;47.62;100833.66;5100417;28;8861;-77
2021/07/23 06:05:31;;;;;;;;;61.75;53.00;;;;;24.58;48.30;100830.47;5098551;28;8814;-78
2021/07/23 06:08:27;;;;;;;;;73.00;66.00;;;;;24.48;48.13;100839.91;5095135;28;8924;-76
2021/07/23 06:11:22;;;;;;;;;27.25;26.75;;;;;24.49;46.90;100833.03;5113624;28;10409;-78
2021/07/23 06:14:19;;;;;;;;;28.75;27.75;;;;;24.43;46.72;100837.53;5113145;28;9579;-78
2021/07/23 06:17:15;;;;;;;;;84.50;84.00;;;;;24.57;47.47;100840.19;5115490;28;8818;-78
2021/07/23 06:20:12;;;;;;;;;28.25;28.25;;;;;24.66;45.82;100834.81;5094957;28;10134;-80
2021/07/23 06:23:14;;;;;;;;;53.25;44.75;;;;;24.75;46.31;100837.91;5100033;28;9011;-78
2021/07/23 06:26:09;;;;;;;;;6.00;5.40;;;;;24.91;45.95;100835.25;5085552;28;8840;-77
2021/07/23 06:29:05;;;;;;;;;75.00;68.75;;;;;25.12;46.42;100836.22;5097665;28;8934;-78
2021/07/23 06:32:00;;;;;;;;;46.25;39.75;;;;;25.20;45.31;100834.88;5097318;28;10534;-78
2021/07/23 06:34:57;;;;;;;;;44.00;38.00;;;;;25.44;45.03;100836.50;5096368;28;8871;-78
2021/07/23 06:37:53;;;;;;;;;60.00;51.50;;;;;25.63;45.65;100834.19;5108567;28;8869;-76
2021/07/23 06:40:49;;;;;;;;;22.20;22.20;;;;;25.64;44.38;100836.59;5106606;28;8865;-78
2021/07/23 06:43:44;;;;;;;;;48.00;41.00;;;;;25.39;45.42;100828.53;5079094;28;8954;-77
2021/07/23 06:46:40;;;;;;;;;17.40;17.40;;;;;25.59;44.65;100830.59;5105726;28;8950;-78
2021/07/23 06:49:36;;;;;;;;;5.00;5.00;;;;;25.38;43.22;100828.91;5087395;28;8855;-80
2021/07/23 06:52:31;;;;;;;;;7.00;6.80;;;;;25.41;43.39;100831.72;5105734;28;8816;-78
2021/07/23 06:55:27;;;;;;;;;11.80;11.80;;;;;25.83;44.40;100834.25;5093450;28;8831;-79
2021/07/23 06:58:23;;;;;;;;;12.60;12.60;;;;;25.75;42.88;100831.56;5096588;28;8850;-78
2021/07/23 07:01:19;;;;;;;;;4.00;4.00;;;;;25.42;42.21;100841.00;5092811;28;8836;-78
2021/07/23 07:04:15;;;;;;;;;14.40;14.40;;;;;25.94;43.95;100841.34;5078948;28;8811;-78
2021/07/23 07:07:11;;;;;;;;;5.80;5.80;;;;;26.01;42.16;100835.53;5092476;28;8851;-79
2021/07/23 07:10:07;;;;;;;;;6.00;6.00;;;;;26.18;43.01;100836.44;5099609;28;9602;-78
2021/07/23 07:13:03;;;;;;;;;13.60;12.80;;;;;25.99;43.50;100835.19;5111176;28;8836;-77
2021/07/23 07:16:01;;;;;;;;;8.20;8.20;;;;;26.09;42.10;100838.25;5098980;28;8902;-78
2021/07/23 07:18:56;;;;;;;;;6.00;6.00;;;;;26.29;42.28;100842.66;5112948;28;8853;-78
2021/07/23 07:21:52;;;;;;;;;9.20;9.20;;;;;26.26;42.37;100848.44;5097675;28;8853;-75
2021/07/23 07:24:47;;;;;;;;;1.60;1.60;;;;;26.16;41.93;100847.41;5112535;28;9598;-76
2021/07/23 07:27:43;;;;;;;;;7.40;7.00;;;;;26.58;42.40;100842.13;5112363;28;8830;-78
2021/07/23 07:30:39;;;;;;;;;7.20;7.20;;;;;26.33;41.07;100849.09;5112440;28;9707;-76
2021/07/23 07:33:34;;;;;;;;;6.20;6.20;;;;;26.26;42.19;100854.91;5092207;28;8893;-77
2021/07/23 07:36:30;;;;;;;;;4.60;4.60;;;;;26.45;43.26;100855.34;5091768;28;8978;-78
2021/07/23 07:39:25;;;;;;;;;7.60;7.60;;;;;26.66;41.52;100852.09;5091880;28;8827;-77
2021/07/23 07:42:21;;;;;;;;;4.80;4.80;;;;;27.02;40.48;100854.94;5091856;28;8863;-77
2021/07/23 07:45:16;;;;;;;;;5.20;5.20;;;;;27.16;40.60;100859.53;5092002;28;8878;-78
2021/07/23 07:48:12;;;;;;;;;4.40;4.40;;;;;26.95;40.08;100851.47;5091726;28;8827;-77
2021/07/23 07:51:08;;;;;;;;;3.00;3.00;;;;;26.98;39.22;100848.53;5091826;28;8843;-76
2021/07/23 07:54:04;;;;;;;;;3.40;3.40;;;;;27.18;39.65;100848.53;5092255;28;8950;-77
2021/07/23 07:57:10;;;;;;;;;5.00;5.00;;;;;27.16;40.16;100859.53;5078251;28;8908;-78
2021/07/23 08:00:07;;;;;;;;;3.00;3.00;;;;;27.03;39.18;100858.56;5091896;28;8908;-77
2021/07/23 08:03:02;;;;;;;;;3.00;3.00;;;;;27.46;39.91;100857.59;5091786;28;8824;-77
2021/07/23 08:06:02;;;;;;;;;7.00;7.00;;;;;27.78;39.46;100860.47;5090838;28;8832;-78
2021/07/23 08:09:04;;;;;;;;;3.00;3.00;;;;;27.30;39.02;100858.41;5091884;28;8864;-78
2021/07/23 08:12:00;;;;;;;;;3.00;3.00;;;;;27.64;38.25;100861.59;5078702;28;8832;-77
2021/07/23 08:14:59;;;;;;;;;2.40;2.40;;;;;27.87;37.66;100857.78;5092032;28;8839;-77
2021/07/23 08:17:54;;;;;;;;;3.00;3.00;;;;;27.92;37.74;100854.41;5081120;28;9669;-76
2021/07/23 08:20:51;;;;;;;;;4.00;4.00;;;;;28.30;37.10;100870.88;5095859;28;8874;-77
2021/07/23 08:23:47;;;;;;;;;6.60;6.60;;;;;27.97;35.53;100861.56;5095491;28;8852;-77
2021/07/23 08:26:43;;;;;;;;;13.80;12.40;;;;;28.16;35.66;100863.50;5094994;28;8832;-79
2021/07/23 08:29:38;;;;;;;;;9.60;7.60;;;;;28.44;35.92;100881.03;5081780;28;8862;-77
2021/07/23 08:32:37;;;;;;;;;13.60;12.00;;;;;28.16;35.56;100874.06;5095362;28;8935;-77
2021/07/23 08:35:32;;;;;;;;;15.20;15.20;;;;;28.18;35.71;100875.22;5098041;28;8835;-76
2021/07/23 08:38:28;;;;;;;;;10.80;10.60;;;;;28.50;36.86;100876.38;5103279;28;8851;-77
2021/07/23 08:41:23;;;;;;;;;5.20;5.20;;;;;28.51;34.04;100890.16;5102375;28;8851;-77
2021/07/23 08:44:19;;;;;;;;;2.00;2.00;;;;;28.23;34.28;100873.88;5097138;28;8838;-77
2021/07/23 08:47:15;;;;;;;;;3.80;3.80;;;;;28.59;34.26;100867.19;5081613;28;8840;-77
2021/07/23 08:50:10;;;;;;;;;2.40;2.40;;;;;28.80;34.05;100877.94;5095132;28;9584;-77
2021/07/23 08:53:12;;;;;;;;;8.00;8.00;;;;;28.78;34.17;100880.44;5095047;28;9658;-77
2021/07/23 08:56:08;;;;;;;;;10.80;10.80;;;;;28.93;34.90;100880.84;5081215;28;8854;-77
2021/07/23 08:59:04;;;;;;;;;10.80;10.80;;;;;28.40;35.59;100883.97;5094854;28;8965;-77
2021/07/23 09:02:02;;;;;;;;;8.00;8.00;;;;;28.71;34.08;100878.63;5081054;28;8836;-77
2021/07/23 09:05:13;;;;;;;;;20.60;15.20;;;;;28.44;34.28;100878.97;5094446;28;8851;-77
2021/07/23 09:08:14;;;;;;;;;17.00;16.60;;;;;28.59;34.84;100873.69;5095377;28;9608;-78
2021/07/23 09:11:10;;;;;;;;;8.00;8.00;;;;;28.56;34.67;100885.16;5094827;28;8839;-78
2021/07/23 09:14:13;;;;;;;;;11.00;11.00;;;;;28.42;34.74;100880.69;5094867;28;8874;-77
2021/07/23 09:17:09;;;;;;;;;10.20;9.00;;;;;28.31;35.28;100878.16;5094354;28;8835;-77
2021/07/23 09:20:05;;;;;;;;;5.80;5.80;;;;;28.65;35.07;100879.63;5095653;28;8836;-77
2021/07/23 09:23:02;;;;;;;;;4.00;4.00;;;;;29.01;33.90;100876.53;5094972;28;8949;-77
2021/07/23 09:26:09;;;;;;;;;7.20;5.00;;;;;28.94;34.91;100888.13;5094011;28;8855;-75
2021/07/23 09:29:05;;;;;;;;;7.00;6.20;;;;;28.50;35.28;100882.88;5080458;28;8840;-76
2021/07/23 09:32:07;;;;;;;;;6.60;6.60;;;;;28.57;35.08;100876.19;5094426;28;8828;-78
2021/07/23 09:35:14;;;;;;;;;7.20;7.20;;;;;29.01;34.51;100877.34;5080782;28;8836;-78
2021/07/23 09:38:10;;;;;;;;;13.60;13.40;;;;;29.05;33.62;100880.84;5095084;28;8935;-78
2021/07/23 09:41:09;;;;;;;;;1.60;1.60;;;;;28.62;32.54;100877.69;5094184;28;8832;-79
2021/07/23 09:44:13;;;;;;;;;1.20;1.20;;;;;28.81;33.52;100885.22;5080616;28;8832;-76
2021/07/23 09:47:23;;;;;;;;;9.60;8.60;;;;;29.33;33.55;100879.16;5093855;28;8851;-78
2021/07/23 09:50:21;;;;;;;;;4.60;4.60;;;;;29.54;32.82;100879.75;5093947;28;8831;-77
2021/07/23 09:53:22;;;;;;;;;2.80;2.80;;;;;29.29;31.92;100883.38;5112601;28;8850;-75
2021/07/23 09:56:18;;;;;;;;;5.60;5.60;;;;;29.31;33.54;100872.34;5098216;28;8845;-74
2021/07/23 09:59:32;;;;;;;;;5.60;4.60;;;;;29.01;32.53;100870.84;5114668;27;8929;-74
2021/07/23 10:02:32;;;;;;;;;2.00;2.00;;;;;28.97;32.56;100870.13;5131680;27;8820;-74
2021/07/23 10:05:34;;;;;;;;;5.60;5.60;;;;;28.62;33.18;100877.69;5100137;28;9539;-73
2021/07/23 10:08:32;;;;;;;;;7.80;7.80;;;;;29.01;32.54;100870.84;5103424;28;8853;-74
2021/07/23 10:11:28;;;;;;;;;4.20;4.20;;;;;29.60;31.22;100867.31;5101837;28;8833;-73
2021/07/23 10:14:29;;;;;;;;;4.20;4.20;;;;;29.49;31.38;100878.25;5105334;28;8819;-74
2021/07/23 10:17:25;;;;;;;;;4.00;4.00;;;;;28.82;31.69;100875.44;5113842;28;8933;-74
2021/07/23 10:20:21;;;;;;;;;7.00;7.00;;;;;29.52;33.42;100874.53;5113370;28;8884;-73
2021/07/23 10:23:22;;;;;;;;;10.00;10.00;;;;;29.92;32.11;100876.03;5113414;28;8885;-73
2021/07/23 10:26:18;;;;;;;;;6.20;5.60;;;;;29.88;30.38;100871.25;5109406;28;8905;-73
2021/07/23 10:29:13;;;;;;;;;4.80;4.80;;;;;29.88;30.96;100876.94;5093200;28;8840;-74
2021/07/23 10:32:31;;;;;;;;;6.00;6.00;;;;;29.76;33.16;100874.13;5093213;28;8983;-74
2021/07/23 10:35:26;;;;;;;;;4.40;4.40;;;;;29.76;30.58;100872.09;5079554;28;9234;-73
2021/07/23 10:38:22;;;;;;;;;5.80;5.80;;;;;29.76;32.68;100879.84;5098573;28;8825;-74
2021/07/23 10:41:17;;;;;;;;;4.00;4.00;;;;;29.89;32.02;100874.88;5092638;28;8945;-75
2021/07/23 10:44:29;;;;;;;;;3.20;3.20;;;;;29.63;32.52;100883.50;5092726;28;8888;-75
2021/07/23 10:47:41;;;;;;;;;2.20;2.20;;;;;29.81;32.07;100885.75;5092937;28;8839;-74
2021/07/23 10:50:40;;;;;;;;;5.00;5.00;;;;;29.89;32.31;100872.84;5082160;28;8887;-74
2021/07/23 10:53:36;;;;;;;;;6.00;6.00;;;;;29.83;32.25;100874.69;5109945;28;8871;-73
2021/07/23 11:00:00;;;;;;;;;7.40;7.40;;;;;29.94;32.97;100862.91;5112655;28;9602;-73
2021/07/23 11:02:55;;;;;;;;;1.80;1.00;;;;;29.95;31.26;100869.41;5112970;28;8898;-73
2021/07/23 11:05:51;;;;;;;;;6.60;6.60;;;;;29.66;31.11;100863.88;5107512;28;8841;-73
2021/07/23 11:08:54;;;;;;;;;3.40;3.40;;;;;30.02;31.97;100860.59;5100907;28;8945;-74
2021/07/23 11:11:51;;;;;;;;;5.20;5.20;;;;;29.83;32.03;100857.59;5090633;28;8843;-73
2021/07/23 11:14:59;;;;;;;;;4.40;4.40;;;;;29.63;32.55;100854.22;5092306;28;8990;-72
2021/07/23 11:17:56;;;;;;;;;6.00;4.00;;;;;29.67;32.33;100852.00;5095081;28;8853;-73
2021/07/23 11:20:57;;;;;;;;;5.00;5.00;;;;;29.89;32.27;100852.88;5091797;28;8829;-74
2021/07/23 11:23:53;;;;;;;;;5.40;5.40;;;;;29.75;33.15;100863.97;5104288;28;8833;-74
2021/07/23 11:26:54;;;;;;;;;2.20;2.20;;;;;29.83;32.20;100851.09;5102655;28;8813;-73
2021/07/23 11:29:50;;;;;;;;;5.40;5.40;;;;;29.46;33.14;100858.44;5110356;28;8833;-74
2021/07/23 11:32:54;;;;;;;;;6.00;6.00;;;;;29.88;32.44;100859.03;5089336;28;8812;-74
2021/07/23 11:35:50;;;;;;;;;3.80;3.80;;;;;29.85;32.07;100848.56;5091754;28;8832;-76
2021/07/23 11:39:02;;;;;;;;;6.60;6.60;;;;;30.26;32.63;100835.31;5092208;28;8831;-73
2021/07/23 11:42:00;;;;;;;;;7.00;7.00;;;;;30.34;33.05;100843.16;5078895;28;8851;-73
2021/07/23 11:44:58;;;;;;;;;6.00;6.00;;;;;30.26;31.77;100841.03;5092467;28;8825;-73
2021/07/23 11:47:56;;;;;;;;;7.00;7.00;;;;;30.25;31.98;100839.44;5108728;28;8853;-73
2021/07/23 11:50:53;;;;;;;;;5.20;5.20;;;;;30.55;30.84;100849.31;5091648;28;8823;-73
2021/07/23 11:53:49;;;;;;;;;9.20;9.20;;;;;30.80;30.82;100845.53;5095834;28;8832;-73
2021/07/23 11:56:45;;;;;;;;;11.20;11.20;;;;;30.73;31.47;100840.91;5096110;28;8878;-73
2021/07/23 11:59:41;;;;;;;;;5.80;5.80;;;;;30.75;31.01;100834.72;5102077;28;8856;-72
2021/07/23 12:02:37;;;;;;;;;5.00;5.00;;;;;31.08;31.22;100835.06;5107566;28;8867;-73
2021/07/23 12:05:36;;;;;;;;;6.60;6.60;;;;;30.62;30.30;100827.00;5085261;28;8828;-73
2021/07/23 12:08:40;;;;;;;;;4.60;4.60;;;;;30.62;31.00;100832.72;5096844;28;8926;-73
2021/07/23 12:11:36;;;;;;;;;5.00;5.00;;;;;30.89;30.58;100825.59;5088279;28;8952;-73
2021/07/23 12:14:33;;;;;;;;;6.20;6.00;;;;;31.03;30.17;100827.88;5096328;28;8816;-74
2021/07/23 12:17:29;;;;;;;;;6.00;6.00;;;;;31.19;30.92;100821.91;5095633;27;8827;-73
2021/07/23 12:20:28;;;;;;;;;8.40;8.40;;;;;31.06;29.36;100826.16;5078422;28;8860;-73
2021/07/23 12:23:25;;;;;;;;;7.00;7.00;;;;;31.44;28.56;100831.53;5098282;28;8867;-73
2021/07/23 12:26:35;;;;;;;;;6.00;6.00;;;;;31.62;27.36;100827.94;5114378;28;8869;-74
2021/07/23 12:29:37;;;;;;;;;4.20;4.20;;;;;31.98;28.44;100824.38;5095481;28;8847;-73
2021/07/23 12:32:33;;;;;;;;;4.80;4.80;;;;;31.85;28.61;100830.22;5103729;27;8823;-73
2021/07/23 12:35:28;;;;;;;;;5.80;5.80;;;;;31.51;28.60;100814.09;5119469;27;8905;-72
2021/07/23 12:38:30;;;;;;;;;8.00;8.00;;;;;31.55;29.71;100818.41;5099467;28;8820;-72
2021/07/23 12:41:27;;;;;;;;;5.40;5.40;;;;;31.86;29.78;100808.16;5099343;28;9152;-73
2021/07/23 12:44:22;;;;;;;;;6.00;6.00;;;;;31.94;29.50;100807.34;5100659;28;8845;-72
2021/07/23 12:47:20;;;;;;;;;5.00;5.00;;;;;31.71;29.62;100817.31;5112588;28;9856;-73
2021/07/23 12:50:17;;;;;;;;;4.00;4.00;;;;;31.74;29.71;100818.41;5098320;27;9568;-75
2021/07/23 12:53:25;;;;;;;;;5.00;5.00;;;;;31.66;30.24;100809.34;5109760;28;8837;-72
2021/07/23 12:56:30;;;;;;;;;5.40;5.40;;;;;31.94;29.36;100797.97;5109571;28;8829;-72
2021/07/23 12:59:26;;;;;;;;;4.60;4.60;;;;;31.37;30.65;100800.44;5114981;28;8853;-74
2021/07/23 13:02:22;;;;;;;;;6.00;6.00;;;;;31.62;30.19;100810.78;5114497;28;8822;-74
2021/07/23 13:05:23;;;;;;;;;2.40;2.40;;;;;31.53;31.30;100808.72;5106745;28;8952;-73
2021/07/23 13:08:18;;;;;;;;;6.40;6.40;;;;;32.03;30.29;100807.34;5094344;28;8958;-72
2021/07/23 13:11:15;;;;;;;;;4.20;4.20;;;;;31.68;30.04;100801.13;5115317;28;8831;-72
2021/07/23 13:14:13;;;;;;;;;7.00;7.00;;;;;31.83;29.96;100804.19;5114059;28;8874;-74
2021/07/23 13:17:08;;;;;;;;;3.60;3.60;;;;;31.64;30.20;100811.09;5097017;28;8822;-74
2021/07/23 13:20:07;;;;;;;;;4.20;4.20;;;;;31.03;30.23;100798.53;5114130;28;8833;-75
2021/07/23 13:23:03;;;;;;;;;4.20;4.20;;;;;30.72;30.60;100807.91;5102011;27;8823;-73
2021/07/23 13:26:00;;;;;;;;;7.20;7.20;;;;;30.36;31.36;100799.88;5097789;28;8815;-74
2021/07/23 13:28:56;;;;;;;;;3.20;3.20;;;;;30.77;31.43;100803.66;5100284;27;8855;-75
2021/07/23 13:31:53;;;;;;;;;4.00;4.00;;;;;30.69;31.54;100797.44;5099963;27;8900;-76
2021/07/23 13:34:50;;;;;;;;;5.00;5.00;;;;;30.04;32.10;100813.25;5094078;28;9004;-74
2021/07/23 13:37:52;;;;;;;;;3.80;3.80;;;;;30.39;32.42;100794.06;5101097;27;8836;-74
2021/07/23 13:40:50;;;;;;;;;3.40;3.40;;;;;30.18;32.27;100804.19;5111320;28;8861;-75
2021/07/23 13:43:46;;;;;;;;;4.20;3.80;;;;;30.35;31.66;100804.00;5114011;28;8843;-75
2021/07/23 13:46:42;;;;;;;;;6.20;6.20;;;;;30.17;31.53;100816.09;5113539;27;8918;-75
2021/07/23 13:49:38;;;;;;;;;5.60;5.60;;;;;29.95;32.07;100804.63;5103295;28;8834;-75
2021/07/23 13:52:33;;;;;;;;;4.00;4.00;;;;;30.38;32.71;100800.22;5114037;28;8903;-74